sensor_id;sensor_type;location;lat;lon;timestamp;temperature;humidity
31619;DHT22;18230;51.502;7.108;2022-09-21T00:00:17;10.40;99.90
31619;DHT22;18230;51.502;7.108;2022-09-21T00:05:18;10.40;99.90
31619;DHT22;18230;51.502;7.108;2022-09-21T00:10:20;10.30;99.90
31619;DHT22;18230;51.502;7.108;2022-09-21T00:15:21;10.40;99.90
31619;DHT22;18230;51.502;7.108;2022-09-21T00:20:23;10.30;99.90
31619;DHT22;18230;51.502;7.108;2022-09-21T00:25:24;10.40;99.90
31619;DHT22;18230;51.502;7.108;2022-09-21T00:30:25;10.30;99.90
31619;DHT22;18230;51.502;7.108;2022-09-21T00:35:26;10.30;99.90
31619;DHT22;18230;51.502;7.108;2022-09-21T00:40:26;10.30;99.90
31619;DHT22;18230;51.502;7.108;2022-09-21T00:45:27;10.30;99.90
31619;DHT22;18230;51.502;7.108;2022-09-21T00:50:28;10.10;99.90
31619;DHT22;18230;51.502;7.108;2022-09-21T00:55:33;10.00;99.90
31619;DHT22;18230;51.502;7.108;2022-09-21T01:00:37;10.10;99.90
31619;DHT22;18230;51.502;7.108;2022-09-21T01:05:39;10.10;99.90
31619;DHT22;18230;51.502;7.108;2022-09-21T01:11:09;10.10;99.90
31619;DHT22;18230;51.502;7.108;2022-09-21T01:16:46;10.00;99.90
31619;DHT22;18230;51.502;7.108;2022-09-21T01:27:43;9.80;99.90
31619;DHT22;18230;51.502;7.108;2022-09-21T01:38:01;9.70;99.90
31619;DHT22;18230;51.502;7.108;2022-09-21T01:43:04;9.60;99.90
31619;DHT22;18230;51.502;7.108;2022-09-21T01:48:06;9.60;99.90
31619;DHT22;18230;51.502;7.108;2022-09-21T01:58:26;9.40;99.90
31619;DHT22;18230;51.502;7.108;2022-09-21T02:08:36;9.60;99.90
31619;DHT22;18230;51.502;7.108;2022-09-21T02:13:42;9.60;99.90
31619;DHT22;18230;51.502;7.108;2022-09-21T02:24:37;9.40;99.90
31619;DHT22;18230;51.502;7.108;2022-09-21T02:29:49;9.30;99.90
31619;DHT22;18230;51.502;7.108;2022-09-21T02:35:08;9.40;99.90
31619;DHT22;18230;51.502;7.108;2022-09-21T02:40:29;9.40;99.90
31619;DHT22;18230;51.502;7.108;2022-09-21T02:45:35;9.40;99.90
31619;DHT22;18230;51.502;7.108;2022-09-21T02:50:45;9.30;99.90
31619;DHT22;18230;51.502;7.108;2022-09-21T02:55:47;9.30;99.90
31619;DHT22;18230;51.502;7.108;2022-09-21T03:00:49;9.40;99.90
31619;DHT22;18230;51.502;7.108;2022-09-21T03:05:52;9.30;99.90
31619;DHT22;18230;51.502;7.108;2022-09-21T03:10:53;9.20;99.90
31619;DHT22;18230;51.502;7.108;2022-09-21T03:16:02;9.20;99.90
31619;DHT22;18230;51.502;7.108;2022-09-21T03:21:03;9.20;99.90
31619;DHT22;18230;51.502;7.108;2022-09-21T03:26:05;9.10;99.90
31619;DHT22;18230;51.502;7.108;2022-09-21T03:31:05;9.10;99.90
31619;DHT22;18230;51.502;7.108;2022-09-21T03:36:06;9.10;99.90
31619;DHT22;18230;51.502;7.108;2022-09-21T03:41:10;9.00;99.90
31619;DHT22;18230;51.502;7.108;2022-09-21T03:46:12;9.00;99.90
31619;DHT22;18230;51.502;7.108;2022-09-21T03:51:13;9.10;99.90
31619;DHT22;18230;51.502;7.108;2022-09-21T03:56:14;9.10;99.90
31619;DHT22;18230;51.502;7.108;2022-09-21T04:01:14;9.20;99.90
31619;DHT22;18230;51.502;7.108;2022-09-21T04:06:17;9.10;99.90
31619;DHT22;18230;51.502;7.108;2022-09-21T04:11:19;9.00;99.90
31619;DHT22;18230;51.502;7.108;2022-09-21T04:16:23;8.90;99.90
31619;DHT22;18230;51.502;7.108;2022-09-21T04:21:24;9.00;99.90
31619;DHT22;18230;51.502;7.108;2022-09-21T04:26:28;8.90;99.90
31619;DHT22;18230;51.502;7.108;2022-09-21T04:31:29;9.00;99.90
31619;DHT22;18230;51.502;7.108;2022-09-21T04:36:31;8.90;99.90
31619;DHT22;18230;51.502;7.108;2022-09-21T04:41:32;8.80;99.90
31619;DHT22;18230;51.502;7.108;2022-09-21T04:46:33;8.70;99.90
31619;DHT22;18230;51.502;7.108;2022-09-21T04:51:33;8.70;99.90
31619;DHT22;18230;51.502;7.108;2022-09-21T04:56:35;8.70;99.90
31619;DHT22;18230;51.502;7.108;2022-09-21T05:01:35;8.70;99.90
31619;DHT22;18230;51.502;7.108;2022-09-21T05:06:36;8.70;99.90
31619;DHT22;18230;51.502;7.108;2022-09-21T05:11:37;8.70;99.90
31619;DHT22;18230;51.502;7.108;2022-09-21T05:16:38;8.70;99.90
31619;DHT22;18230;51.502;7.108;2022-09-21T05:21:42;8.70;99.90
31619;DHT22;18230;51.502;7.108;2022-09-21T05:26:43;8.70;99.90
31619;DHT22;18230;51.502;7.108;2022-09-21T05:31:47;8.70;99.90
31619;DHT22;18230;51.502;7.108;2022-09-21T05:37:06;8.70;99.90
31619;DHT22;18230;51.502;7.108;2022-09-21T05:42:10;8.70;99.90
31619;DHT22;18230;51.502;7.108;2022-09-21T05:47:23;8.80;99.90
31619;DHT22;18230;51.502;7.108;2022-09-21T06:03:41;9.50;99.90
31619;DHT22;18230;51.502;7.108;2022-09-21T06:08:42;10.10;99.90
31619;DHT22;18230;51.502;7.108;2022-09-21T06:13:43;10.10;99.90
31619;DHT22;18230;51.502;7.108;2022-09-21T06:18:44;10.00;99.90
31619;DHT22;18230;51.502;7.108;2022-09-21T06:23:44;10.10;99.90
31619;DHT22;18230;51.502;7.108;2022-09-21T06:28:45;10.30;99.90
31619;DHT22;18230;51.502;7.108;2022-09-21T06:33:46;10.50;99.90
31619;DHT22;18230;51.502;7.108;2022-09-21T06:38:46;10.50;99.90
31619;DHT22;18230;51.502;7.108;2022-09-21T06:43:47;10.70;99.90
31619;DHT22;18230;51.502;7.108;2022-09-21T06:48:48;10.90;99.90
31619;DHT22;18230;51.502;7.108;2022-09-21T06:53:53;11.20;99.90
31619;DHT22;18230;51.502;7.108;2022-09-21T06:58:55;11.50;99.90
31619;DHT22;18230;51.502;7.108;2022-09-21T07:03:55;11.40;99.90
31619;DHT22;18230;51.502;7.108;2022-09-21T07:08:56;11.50;99.90
31619;DHT22;18230;51.502;7.108;2022-09-21T07:13:58;11.90;99.90
31619;DHT22;18230;51.502;7.108;2022-09-21T07:18:59;11.90;99.90
31619;DHT22;18230;51.502;7.108;2022-09-21T07:24:00;12.10;99.90
31619;DHT22;18230;51.502;7.108;2022-09-21T07:29:01;12.30;99.90
31619;DHT22;18230;51.502;7.108;2022-09-21T07:34:02;12.50;99.90
31619;DHT22;18230;51.502;7.108;2022-09-21T07:39:03;12.80;99.90
31619;DHT22;18230;51.502;7.108;2022-09-21T07:44:04;12.90;99.90
31619;DHT22;18230;51.502;7.108;2022-09-21T07:49:05;13.10;99.90
31619;DHT22;18230;51.502;7.108;2022-09-21T07:54:10;13.40;99.90
31619;DHT22;18230;51.502;7.108;2022-09-21T07:59:11;13.60;99.90
31619;DHT22;18230;51.502;7.108;2022-09-21T08:04:12;13.80;99.90
31619;DHT22;18230;51.502;7.108;2022-09-21T08:09:13;14.00;99.90
31619;DHT22;18230;51.502;7.108;2022-09-21T08:14:14;14.20;99.90
31619;DHT22;18230;51.502;7.108;2022-09-21T08:19:18;14.40;99.90
31619;DHT22;18230;51.502;7.108;2022-09-21T08:24:20;14.60;99.90
31619;DHT22;18230;51.502;7.108;2022-09-21T08:29:20;14.90;99.90
31619;DHT22;18230;51.502;7.108;2022-09-21T08:34:21;15.10;99.90
31619;DHT22;18230;51.502;7.108;2022-09-21T08:39:23;15.20;99.90
31619;DHT22;18230;51.502;7.108;2022-09-21T08:44:28;15.40;99.90
31619;DHT22;18230;51.502;7.108;2022-09-21T08:49:34;15.60;99.90
31619;DHT22;18230;51.502;7.108;2022-09-21T08:54:58;15.70;99.90
31619;DHT22;18230;51.502;7.108;2022-09-21T09:00:00;15.80;99.90
31619;DHT22;18230;51.502;7.108;2022-09-21T09:11:00;16.10;99.90
31619;DHT22;18230;51.502;7.108;2022-09-21T09:21:36;16.40;99.90
31619;DHT22;18230;51.502;7.108;2022-09-21T09:37:46;16.50;99.90
31619;DHT22;18230;51.502;7.108;2022-09-21T09:47:55;16.50;99.90
31619;DHT22;18230;51.502;7.108;2022-09-21T09:53:22;16.80;99.90
31619;DHT22;18230;51.502;7.108;2022-09-21T10:04:09;16.50;99.90
31619;DHT22;18230;51.502;7.108;2022-09-21T10:09:25;16.50;99.90
31619;DHT22;18230;51.502;7.108;2022-09-21T10:14:30;16.50;99.90
31619;DHT22;18230;51.502;7.108;2022-09-21T10:19:32;16.50;99.90
31619;DHT22;18230;51.502;7.108;2022-09-21T10:24:38;16.70;99.90
31619;DHT22;18230;51.502;7.108;2022-09-21T10:29:43;16.70;99.90
31619;DHT22;18230;51.502;7.108;2022-09-21T10:45:30;17.00;99.90
31619;DHT22;18230;51.502;7.108;2022-09-21T10:50:38;17.00;99.90
31619;DHT22;18230;51.502;7.108;2022-09-21T10:55:54;17.00;99.90
31619;DHT22;18230;51.502;7.108;2022-09-21T11:01:10;17.00;99.90
31619;DHT22;18230;51.502;7.108;2022-09-21T11:06:20;17.50;99.90
31619;DHT22;18230;51.502;7.108;2022-09-21T11:11:48;17.90;99.90
31619;DHT22;18230;51.502;7.108;2022-09-21T11:16:53;17.80;99.90
31619;DHT22;18230;51.502;7.108;2022-09-21T11:22:24;18.00;99.90
31619;DHT22;18230;51.502;7.108;2022-09-21T11:27:36;18.30;99.90
31619;DHT22;18230;51.502;7.108;2022-09-21T11:33:13;18.30;99.90
31619;DHT22;18230;51.502;7.108;2022-09-21T11:44:07;18.60;99.90
31619;DHT22;18230;51.502;7.108;2022-09-21T11:49:59;18.50;99.90
31619;DHT22;18230;51.502;7.108;2022-09-21T11:55:21;18.30;99.90
31619;DHT22;18230;51.502;7.108;2022-09-21T12:00:25;18.10;99.90
31619;DHT22;18230;51.502;7.108;2022-09-21T12:11:12;17.70;99.90
31619;DHT22;18230;51.502;7.108;2022-09-21T12:21:54;17.50;99.90
31619;DHT22;18230;51.502;7.108;2022-09-21T12:26:56;17.40;99.90
31619;DHT22;18230;51.502;7.108;2022-09-21T12:37:19;17.50;99.90
31619;DHT22;18230;51.502;7.108;2022-09-21T12:42:45;17.50;99.90
31619;DHT22;18230;51.502;7.108;2022-09-21T12:53:29;17.70;99.90
31619;DHT22;18230;51.502;7.108;2022-09-21T13:09:24;18.30;99.90
31619;DHT22;18230;51.502;7.108;2022-09-21T13:14:29;18.20;99.90
31619;DHT22;18230;51.502;7.108;2022-09-21T13:19:34;18.20;99.90
31619;DHT22;18230;51.502;7.108;2022-09-21T13:24:35;18.10;99.90
31619;DHT22;18230;51.502;7.108;2022-09-21T13:29:37;18.00;99.90
31619;DHT22;18230;51.502;7.108;2022-09-21T13:34:41;17.90;99.90
31619;DHT22;18230;51.502;7.108;2022-09-21T13:44:50;18.30;99.90
31619;DHT22;18230;51.502;7.108;2022-09-21T13:49:51;18.20;99.90
31619;DHT22;18230;51.502;7.108;2022-09-21T13:54:58;18.00;99.90
31619;DHT22;18230;51.502;7.108;2022-09-21T14:10:34;18.00;99.90
31619;DHT22;18230;51.502;7.108;2022-09-21T14:15:38;17.90;99.90
31619;DHT22;18230;51.502;7.108;2022-09-21T14:20:39;18.50;99.90
31619;DHT22;18230;51.502;7.108;2022-09-21T14:30:55;19.40;99.40
31619;DHT22;18230;51.502;7.108;2022-09-21T14:35:59;19.60;97.60
31619;DHT22;18230;51.502;7.108;2022-09-21T14:41:06;19.60;99.00
31619;DHT22;18230;51.502;7.108;2022-09-21T14:51:28;19.90;97.10
31619;DHT22;18230;51.502;7.108;2022-09-21T15:02:28;19.70;97.00
31619;DHT22;18230;51.502;7.108;2022-09-21T15:18:17;20.80;93.50
31619;DHT22;18230;51.502;7.108;2022-09-21T15:23:22;20.80;92.70
31619;DHT22;18230;51.502;7.108;2022-09-21T15:28:33;20.80;92.40
31619;DHT22;18230;51.502;7.108;2022-09-21T15:33:38;20.90;94.00
31619;DHT22;18230;51.502;7.108;2022-09-21T15:38:47;21.10;93.90
31619;DHT22;18230;51.502;7.108;2022-09-21T15:43:48;21.10;92.10
31619;DHT22;18230;51.502;7.108;2022-09-21T15:48:55;20.80;92.50
31619;DHT22;18230;51.502;7.108;2022-09-21T15:59:46;21.10;91.20
31619;DHT22;18230;51.502;7.108;2022-09-21T16:04:48;21.20;91.80
31619;DHT22;18230;51.502;7.108;2022-09-21T16:09:51;20.90;91.80
31619;DHT22;18230;51.502;7.108;2022-09-21T16:14:59;20.60;92.30
31619;DHT22;18230;51.502;7.108;2022-09-21T16:20:18;20.40;92.30
31619;DHT22;18230;51.502;7.108;2022-09-21T16:25:24;20.20;92.60
31619;DHT22;18230;51.502;7.108;2022-09-21T16:30:51;20.20;93.20
31619;DHT22;18230;51.502;7.108;2022-09-21T16:35:54;20.00;93.30
31619;DHT22;18230;51.502;7.108;2022-09-21T16:40:59;19.80;94.10
31619;DHT22;18230;51.502;7.108;2022-09-21T16:46:00;19.60;94.30
31619;DHT22;18230;51.502;7.108;2022-09-21T16:51:04;19.30;94.40
31619;DHT22;18230;51.502;7.108;2022-09-21T16:56:12;19.00;94.80
31619;DHT22;18230;51.502;7.108;2022-09-21T17:01:16;18.80;95.60
31619;DHT22;18230;51.502;7.108;2022-09-21T17:06:20;18.70;98.20
31619;DHT22;18230;51.502;7.108;2022-09-21T17:11:21;18.60;99.60
31619;DHT22;18230;51.502;7.108;2022-09-21T17:16:23;18.40;99.90
31619;DHT22;18230;51.502;7.108;2022-09-21T17:21:24;18.10;99.90
31619;DHT22;18230;51.502;7.108;2022-09-21T17:26:24;17.70;99.90
31619;DHT22;18230;51.502;7.108;2022-09-21T17:31:25;17.40;99.90
31619;DHT22;18230;51.502;7.108;2022-09-21T17:36:27;17.20;99.90
31619;DHT22;18230;51.502;7.108;2022-09-21T17:41:33;17.10;99.90
31619;DHT22;18230;51.502;7.108;2022-09-21T17:46:46;16.80;99.90
31619;DHT22;18230;51.502;7.108;2022-09-21T17:51:50;16.70;99.90
31619;DHT22;18230;51.502;7.108;2022-09-21T17:57:45;16.50;99.90
31619;DHT22;18230;51.502;7.108;2022-09-21T18:02:47;16.30;99.90
31619;DHT22;18230;51.502;7.108;2022-09-21T18:07:49;15.90;99.90
31619;DHT22;18230;51.502;7.108;2022-09-21T18:13:09;15.80;99.90
31619;DHT22;18230;51.502;7.108;2022-09-21T18:18:19;15.50;99.90
31619;DHT22;18230;51.502;7.108;2022-09-21T18:23:43;15.30;99.90
31619;DHT22;18230;51.502;7.108;2022-09-21T18:28:49;15.00;99.90
31619;DHT22;18230;51.502;7.108;2022-09-21T18:44:45;14.60;99.90
31619;DHT22;18230;51.502;7.108;2022-09-21T18:50:04;14.50;99.90
31619;DHT22;18230;51.502;7.108;2022-09-21T18:55:33;14.30;99.90
31619;DHT22;18230;51.502;7.108;2022-09-21T19:00:36;14.20;99.90
31619;DHT22;18230;51.502;7.108;2022-09-21T19:11:09;14.00;99.90
31619;DHT22;18230;51.502;7.108;2022-09-21T19:31:46;13.70;99.90
31619;DHT22;18230;51.502;7.108;2022-09-21T19:36:47;13.50;99.90
31619;DHT22;18230;51.502;7.108;2022-09-21T19:41:56;13.40;99.90
31619;DHT22;18230;51.502;7.108;2022-09-21T19:47:21;13.30;99.90
31619;DHT22;18230;51.502;7.108;2022-09-21T19:52:30;13.10;99.90
31619;DHT22;18230;51.502;7.108;2022-09-21T19:57:32;13.00;99.90
31619;DHT22;18230;51.502;7.108;2022-09-21T20:03:11;12.90;99.90
31619;DHT22;18230;51.502;7.108;2022-09-21T20:29:47;12.50;99.90
31619;DHT22;18230;51.502;7.108;2022-09-21T20:34:48;12.40;99.90
31619;DHT22;18230;51.502;7.108;2022-09-21T20:39:49;12.30;99.90
31619;DHT22;18230;51.502;7.108;2022-09-21T20:44:50;12.20;99.90
31619;DHT22;18230;51.502;7.108;2022-09-21T20:49:51;12.10;99.90
31619;DHT22;18230;51.502;7.108;2022-09-21T20:54:52;12.10;99.90
31619;DHT22;18230;51.502;7.108;2022-09-21T20:59:53;12.00;99.90
31619;DHT22;18230;51.502;7.108;2022-09-21T21:04:54;11.90;99.90
31619;DHT22;18230;51.502;7.108;2022-09-21T21:09:55;11.90;99.90
31619;DHT22;18230;51.502;7.108;2022-09-21T21:14:58;11.90;99.90
31619;DHT22;18230;51.502;7.108;2022-09-21T21:19:58;11.70;99.90
31619;DHT22;18230;51.502;7.108;2022-09-21T21:24:59;11.80;99.90
31619;DHT22;18230;51.502;7.108;2022-09-21T21:30:01;11.80;99.90
31619;DHT22;18230;51.502;7.108;2022-09-21T21:35:02;11.70;99.90
31619;DHT22;18230;51.502;7.108;2022-09-21T21:40:04;11.50;99.90
31619;DHT22;18230;51.502;7.108;2022-09-21T21:45:05;11.60;99.90
31619;DHT22;18230;51.502;7.108;2022-09-21T21:50:06;11.60;99.90
31619;DHT22;18230;51.502;7.108;2022-09-21T21:55:07;11.50;99.90
31619;DHT22;18230;51.502;7.108;2022-09-21T22:00:08;11.40;99.90
31619;DHT22;18230;51.502;7.108;2022-09-21T22:05:09;11.30;99.90
31619;DHT22;18230;51.502;7.108;2022-09-21T22:10:10;11.30;99.90
31619;DHT22;18230;51.502;7.108;2022-09-21T22:15:11;11.10;99.90
31619;DHT22;18230;51.502;7.108;2022-09-21T22:20:11;11.10;99.90
31619;DHT22;18230;51.502;7.108;2022-09-21T22:25:13;11.00;99.90
31619;DHT22;18230;51.502;7.108;2022-09-21T22:30:14;11.00;99.90
31619;DHT22;18230;51.502;7.108;2022-09-21T22:35:15;11.00;99.90
31619;DHT22;18230;51.502;7.108;2022-09-21T22:40:15;11.00;99.90
31619;DHT22;18230;51.502;7.108;2022-09-21T22:45:16;10.90;99.90
31619;DHT22;18230;51.502;7.108;2022-09-21T22:50:17;10.90;99.90
31619;DHT22;18230;51.502;7.108;2022-09-21T22:55:18;11.00;99.90
31619;DHT22;18230;51.502;7.108;2022-09-21T23:00:19;10.80;99.90
31619;DHT22;18230;51.502;7.108;2022-09-21T23:05:21;10.70;99.90
31619;DHT22;18230;51.502;7.108;2022-09-21T23:10:24;10.70;99.90
31619;DHT22;18230;51.502;7.108;2022-09-21T23:15:26;10.70;99.90
31619;DHT22;18230;51.502;7.108;2022-09-21T23:20:27;10.70;99.90
31619;DHT22;18230;51.502;7.108;2022-09-21T23:25:29;10.60;99.90
31619;DHT22;18230;51.502;7.108;2022-09-21T23:30:31;10.50;99.90
31619;DHT22;18230;51.502;7.108;2022-09-21T23:35:32;10.40;99.90
31619;DHT22;18230;51.502;7.108;2022-09-21T23:40:33;10.30;99.90
31619;DHT22;18230;51.502;7.108;2022-09-21T23:45:33;10.30;99.90
31619;DHT22;18230;51.502;7.108;2022-09-21T23:50:34;10.30;99.90
31619;DHT22;18230;51.502;7.108;2022-09-21T23:55:35;10.40;99.90
